createdAt,value
2022-08-27T00:04:50.803Z,91.40
2022-08-27T00:09:50.071Z,91.30
2022-08-27T00:14:49.066Z,91.60
2022-08-27T00:19:47.783Z,92.10
2022-08-27T00:24:49.083Z,92.20
2022-08-27T00:29:47.805Z,92.50
2022-08-27T00:34:46.813Z,93.10
2022-08-27T00:39:45.941Z,93.60
2022-08-27T00:44:44.851Z,94.10
2022-08-27T00:49:43.949Z,94.50
2022-08-27T00:54:42.867Z,95.00
2022-08-27T00:59:41.973Z,95.50
2022-08-27T01:04:41.251Z,96.10
2022-08-27T01:09:40.371Z,96.50
2022-08-27T01:14:40.033Z,96.40
2022-08-27T01:19:38.793Z,96.20
2022-08-27T01:24:38.109Z,96.10
2022-08-27T01:29:37.525Z,96.00
2022-08-27T01:34:36.907Z,95.90
2022-08-27T01:39:36.094Z,96.00
2022-08-27T01:44:35.937Z,95.80
2022-08-27T01:49:35.010Z,95.80
2022-08-27T01:54:33.857Z,95.80
2022-08-27T01:59:39.711Z,95.50
2022-08-27T02:04:34.037Z,95.40
2022-08-27T02:09:33.194Z,95.60
2022-08-27T02:14:31.825Z,95.40
2022-08-27T02:19:31.008Z,95.30
2022-08-27T02:24:29.879Z,95.40
2022-08-27T02:29:29.140Z,95.20
2022-08-27T02:34:28.371Z,95.30
2022-08-27T02:39:26.939Z,95.40
2022-08-27T02:44:25.912Z,95.40
2022-08-27T02:49:25.111Z,95.40
2022-08-27T02:54:24.009Z,95.50
2022-08-27T02:59:24.849Z,95.50
2022-08-27T03:04:23.863Z,95.80
2022-08-27T03:09:22.959Z,95.80
2022-08-27T03:14:22.064Z,95.80
2022-08-27T03:19:21.656Z,95.70
2022-08-27T03:24:22.347Z,95.60
2022-08-27T03:29:21.964Z,95.60
2022-08-27T03:34:21.228Z,95.30
2022-08-27T03:39:19.980Z,95.00
2022-08-27T03:44:21.609Z,95.00
2022-08-27T03:49:20.514Z,94.70
2022-08-27T03:54:20.099Z,94.80
2022-08-27T03:59:19.783Z,94.70
2022-08-27T04:04:19.108Z,94.70
2022-08-27T04:09:17.920Z,94.80
2022-08-27T04:14:19.897Z,94.80
2022-08-27T04:19:18.776Z,94.80
2022-08-27T04:24:18.035Z,94.70
2022-08-27T04:29:16.996Z,94.70
2022-08-27T04:34:16.119Z,94.70
2022-08-27T04:39:15.020Z,94.60
2022-08-27T04:44:14.058Z,94.40
2022-08-27T04:49:13.635Z,94.40
2022-08-27T04:54:14.134Z,94.50
2022-08-27T04:59:13.028Z,94.50
2022-08-27T05:04:12.067Z,94.60
2022-08-27T05:09:11.020Z,94.60
2022-08-27T05:14:10.279Z,94.60
2022-08-27T05:19:09.132Z,94.90
2022-08-27T05:24:08.104Z,95.10
2022-08-27T05:29:07.056Z,95.30
2022-08-27T05:34:08.486Z,95.50
2022-08-27T05:39:07.452Z,95.70
2022-08-27T05:44:24.133Z,95.90
2022-08-27T05:49:07.043Z,96.10
2022-08-27T05:54:08.764Z,96.40
2022-08-27T05:59:25.291Z,96.50
2022-08-27T06:04:26.079Z,96.50
2022-08-27T06:09:25.403Z,96.50
2022-08-27T06:14:24.392Z,96.70
2022-08-27T06:19:23.116Z,96.80
2022-08-27T06:24:22.454Z,97.00
2022-08-27T06:29:23.239Z,97.10
2022-08-27T06:34:22.199Z,97.10
2022-08-27T06:39:21.293Z,97.00
2022-08-27T06:44:23.948Z,97.10
2022-08-27T06:49:23.923Z,97.10
2022-08-27T06:54:23.208Z,97.20
2022-08-27T06:59:22.174Z,97.00
2022-08-27T07:04:21.195Z,96.90
2022-08-27T07:09:21.323Z,97.00
2022-08-27T07:14:22.495Z,96.50
2022-08-27T07:19:21.037Z,96.70
2022-08-27T07:24:21.139Z,96.60
2022-08-27T07:29:20.125Z,96.30
2022-08-27T07:34:19.145Z,96.40
2022-08-27T07:39:18.162Z,95.80
2022-08-27T07:44:28.022Z,95.40
2022-08-27T07:49:28.052Z,95.50
2022-08-27T07:54:27.032Z,95.80
2022-08-27T07:59:26.769Z,95.50
2022-08-27T08:04:26.237Z,95.20
2022-08-27T08:09:25.254Z,93.80
2022-08-27T08:14:24.741Z,93.70
2022-08-27T08:19:24.673Z,93.00
2022-08-27T08:24:23.194Z,92.70
2022-08-27T08:29:22.189Z,91.80
2022-08-27T08:34:21.207Z,91.20
2022-08-27T08:39:20.216Z,91.80
2022-08-27T08:44:19.225Z,89.60
2022-08-27T08:49:18.138Z,88.10
2022-08-27T08:54:18.172Z,87.00
2022-08-27T08:59:18.593Z,84.50
2022-08-27T09:04:17.194Z,85.10
2022-08-27T09:09:16.109Z,84.00
2022-08-27T09:14:16.460Z,81.20
2022-08-27T09:19:15.389Z,81.70
2022-08-27T09:24:14.189Z,80.30
2022-08-27T09:29:16.084Z,80.40
2022-08-27T09:34:15.317Z,79.30
2022-08-27T09:39:17.361Z,79.80
2022-08-27T09:44:16.390Z,79.90
2022-08-27T09:49:16.084Z,79.60
2022-08-27T09:54:15.326Z,79.90
2022-08-27T09:59:14.545Z,80.50
2022-08-27T10:04:13.324Z,80.30
2022-08-27T10:09:12.174Z,80.30
2022-08-27T10:14:13.431Z,80.70
2022-08-27T10:19:12.331Z,79.00
2022-08-27T10:24:11.337Z,78.50
2022-08-27T10:29:10.249Z,78.50
2022-08-27T10:34:12.349Z,79.20
2022-08-27T10:39:11.441Z,79.30
2022-08-27T10:44:10.460Z,79.20
2022-08-27T10:49:09.469Z,77.70
2022-08-27T10:54:10.214Z,77.70
2022-08-27T10:59:09.329Z,76.40
2022-08-27T11:04:08.278Z,77.10
2022-08-27T11:09:07.887Z,76.30
2022-08-27T11:14:09.317Z,75.60
2022-08-27T11:19:08.590Z,74.50
2022-08-27T11:24:07.361Z,74.20
2022-08-27T11:29:07.297Z,72.80
2022-08-27T11:34:08.183Z,72.80
2022-08-27T11:39:07.835Z,69.40
2022-08-27T11:44:07.301Z,69.90
2022-08-27T11:49:06.409Z,70.60
2022-08-27T11:54:06.526Z,71.10
2022-08-27T11:59:05.462Z,70.20
2022-08-27T12:04:06.010Z,70.00
2022-08-27T12:09:06.343Z,70.50
2022-08-27T12:14:05.563Z,67.90
2022-08-27T12:19:04.803Z,67.20
2022-08-27T12:24:03.370Z,67.90
2022-08-27T12:29:02.749Z,67.80
2022-08-27T12:34:01.364Z,67.00
2022-08-27T12:39:02.223Z,66.50
2022-08-27T12:44:03.532Z,63.50
2022-08-27T12:49:12.757Z,63.50
2022-08-27T12:54:05.325Z,59.90
2022-08-27T12:59:05.147Z,61.80
2022-08-27T13:04:04.944Z,60.70
2022-08-27T13:09:04.563Z,61.40
2022-08-27T13:14:03.279Z,59.00
2022-08-27T13:19:02.651Z,60.40
2022-08-27T13:24:01.642Z,61.80
2022-08-27T13:29:03.513Z,61.40
2022-08-27T13:34:01.400Z,60.70
2022-08-27T13:39:00.500Z,61.00
2022-08-27T13:43:59.786Z,60.50
2022-08-27T13:48:58.906Z,58.80
2022-08-27T13:54:16.343Z,58.10
2022-08-27T13:59:15.305Z,59.10
2022-08-27T14:04:14.311Z,59.60
2022-08-27T14:09:14.124Z,59.90
2022-08-27T14:14:13.776Z,60.80
2022-08-27T14:19:12.588Z,60.70
2022-08-27T14:24:13.198Z,60.00
2022-08-27T14:29:12.604Z,60.50
2022-08-27T14:34:11.477Z,61.30
2022-08-27T14:39:10.475Z,61.30
2022-08-27T14:44:09.500Z,61.80
2022-08-27T14:49:08.793Z,62.10
2022-08-27T14:54:07.511Z,62.50
2022-08-27T14:59:07.110Z,62.60
2022-08-27T15:04:06.542Z,62.10
2022-08-27T15:09:06.069Z,62.60
2022-08-27T15:14:05.398Z,63.10
2022-08-27T15:19:06.483Z,62.40
2022-08-27T15:24:05.471Z,62.50
2022-08-27T15:29:06.737Z,62.80
2022-08-27T15:34:06.227Z,62.20
2022-08-27T15:39:05.671Z,61.60
2022-08-27T15:44:04.875Z,61.00
2022-08-27T15:49:03.766Z,61.40
2022-08-27T15:54:02.580Z,61.50
2022-08-27T15:59:01.649Z,61.50
2022-08-27T16:04:00.937Z,61.90
2022-08-27T16:08:59.743Z,61.90
2022-08-27T16:13:59.934Z,62.20
2022-08-27T16:18:58.897Z,62.30
2022-08-27T16:23:57.691Z,62.50
2022-08-27T16:28:56.697Z,63.10
2022-08-27T16:33:55.496Z,63.50
2022-08-27T16:38:57.591Z,63.40
2022-08-27T16:43:58.514Z,63.40
2022-08-27T16:49:15.979Z,63.50
2022-08-27T16:54:16.201Z,63.50
2022-08-27T16:59:16.048Z,63.50
2022-08-27T17:04:21.589Z,63.80
2022-08-27T17:09:15.745Z,63.70
2022-08-27T17:14:14.503Z,64.00
2022-08-27T17:19:17.102Z,64.20
2022-08-27T17:24:15.819Z,64.40
2022-08-27T17:29:14.831Z,64.70
2022-08-27T17:34:13.628Z,64.80
2022-08-27T17:39:12.925Z,65.00
2022-08-27T17:44:11.564Z,65.10
2022-08-27T17:49:10.595Z,65.30
2022-08-27T17:54:09.591Z,65.50
2022-08-27T17:59:08.615Z,65.60
2022-08-27T18:04:08.131Z,65.60
2022-08-27T18:09:08.159Z,65.70
2022-08-27T18:14:07.693Z,66.00
2022-08-27T18:19:07.087Z,65.90
2022-08-27T18:24:06.629Z,66.20
2022-08-27T18:29:05.562Z,66.50
2022-08-27T18:34:07.725Z,66.60
2022-08-27T18:39:06.654Z,66.80
2022-08-27T18:44:11.536Z,67.10
2022-08-27T18:49:07.284Z,67.30
2022-08-27T18:54:06.750Z,67.50
2022-08-27T18:59:06.479Z,67.10
2022-08-27T19:04:05.903Z,66.90
2022-08-27T19:09:04.598Z,66.90
2022-08-27T19:14:03.613Z,66.80
2022-08-27T19:19:02.689Z,66.70
2022-08-27T19:24:03.525Z,66.70
2022-08-27T19:29:02.748Z,66.60
2022-08-27T19:34:03.585Z,66.50
2022-08-27T19:39:03.044Z,66.60
2022-08-27T19:44:01.769Z,66.50
2022-08-27T19:49:03.755Z,66.60
2022-08-27T19:54:02.649Z,66.40
2022-08-27T19:59:14.513Z,66.40
2022-08-27T20:04:02.798Z,66.50
2022-08-27T20:09:03.813Z,66.60
2022-08-27T20:14:02.809Z,66.60
2022-08-27T20:19:02.309Z,66.70
2022-08-27T20:24:01.849Z,66.80
2022-08-27T20:29:00.866Z,66.90
2022-08-27T20:33:59.662Z,66.90
2022-08-27T20:38:58.665Z,67.00
2022-08-27T20:43:57.685Z,67.20
2022-08-27T20:48:56.974Z,67.40
2022-08-27T20:53:55.975Z,67.40
2022-08-27T20:59:12.868Z,67.50
2022-08-27T21:04:11.738Z,67.60
2022-08-27T21:09:10.762Z,67.70
2022-08-27T21:14:09.773Z,67.90
2022-08-27T21:19:08.788Z,68.00
2022-08-27T21:24:07.905Z,68.20
2022-08-27T21:29:06.796Z,68.40
2022-08-27T21:34:05.821Z,68.60
2022-08-27T21:39:04.737Z,68.80
2022-08-27T21:44:04.136Z,69.10
2022-08-27T21:49:04.899Z,69.40
2022-08-27T21:54:03.692Z,69.60
2022-08-27T21:59:03.729Z,69.80
2022-08-27T22:04:02.769Z,69.70
2022-08-27T22:09:01.766Z,69.70
2022-08-27T22:14:00.775Z,69.70
2022-08-27T22:18:59.788Z,69.70
2022-08-27T22:23:58.806Z,69.60
2022-08-27T22:28:57.810Z,69.80
2022-08-27T22:33:56.825Z,69.80
2022-08-27T22:38:59.659Z,69.70
2022-08-27T22:43:56.943Z,69.80
2022-08-27T22:48:57.125Z,69.90
2022-08-27T22:53:55.781Z,70.00
2022-08-27T22:58:54.764Z,70.00
2022-08-27T23:03:54.067Z,69.80
2022-08-27T23:08:53.801Z,69.90
2022-08-27T23:13:52.821Z,69.60
2022-08-27T23:18:51.805Z,69.40
2022-08-27T23:23:50.728Z,69.40
2022-08-27T23:28:49.813Z,69.20
2022-08-27T23:33:48.859Z,68.80
2022-08-27T23:38:47.859Z,67.90
2022-08-27T23:43:47.060Z,67.90
2022-08-27T23:48:45.874Z,68.40
2022-08-27T23:53:44.894Z,68.20
2022-08-27T23:58:45.203Z,68.10
